sensor_id;sensor_type;location;lat;lon;timestamp;P1;durP1;ratioP1;P2;durP2;ratioP2
18455;SDS011;9357;49.900;8.208;2023-03-14T00:01:15;5.93;;;1.10;;
18455;SDS011;9357;49.900;8.208;2023-03-14T00:02:51;2.43;;;1.37;;
18455;SDS011;9357;49.900;8.208;2023-03-14T00:04:25;2.87;;;1.60;;
18455;SDS011;9357;49.900;8.208;2023-03-14T00:06:01;2.57;;;1.47;;
18455;SDS011;9357;49.900;8.208;2023-03-14T00:07:34;2.80;;;1.23;;
18455;SDS011;9357;49.900;8.208;2023-03-14T00:09:08;3.67;;;1.43;;
18455;SDS011;9357;49.900;8.208;2023-03-14T00:10:40;2.93;;;1.37;;
18455;SDS011;9357;49.900;8.208;2023-03-14T00:12:13;3.40;;;1.30;;
18455;SDS011;9357;49.900;8.208;2023-03-14T00:13:46;3.30;;;1.47;;
18455;SDS011;9357;49.900;8.208;2023-03-14T00:15:20;4.83;;;1.60;;
18455;SDS011;9357;49.900;8.208;2023-03-14T00:16:54;4.67;;;1.40;;
18455;SDS011;9357;49.900;8.208;2023-03-14T00:18:26;4.10;;;1.40;;
18455;SDS011;9357;49.900;8.208;2023-03-14T00:19:59;3.87;;;1.50;;
18455;SDS011;9357;49.900;8.208;2023-03-14T00:21:39;4.13;;;1.40;;
18455;SDS011;9357;49.900;8.208;2023-03-14T00:23:11;2.80;;;1.30;;
18455;SDS011;9357;49.900;8.208;2023-03-14T00:24:44;7.33;;;1.80;;
18455;SDS011;9357;49.900;8.208;2023-03-14T00:26:18;3.63;;;1.40;;
18455;SDS011;9357;49.900;8.208;2023-03-14T00:27:52;5.67;;;1.67;;
18455;SDS011;9357;49.900;8.208;2023-03-14T00:29:24;4.30;;;1.30;;
18455;SDS011;9357;49.900;8.208;2023-03-14T00:30:56;4.27;;;1.53;;
18455;SDS011;9357;49.900;8.208;2023-03-14T00:32:31;3.90;;;1.50;;
18455;SDS011;9357;49.900;8.208;2023-03-14T00:34:03;4.83;;;1.57;;
18455;SDS011;9357;49.900;8.208;2023-03-14T00:35:35;3.80;;;1.63;;
18455;SDS011;9357;49.900;8.208;2023-03-14T00:37:08;5.00;;;1.50;;
18455;SDS011;9357;49.900;8.208;2023-03-14T00:38:41;5.40;;;1.47;;
18455;SDS011;9357;49.900;8.208;2023-03-14T00:40:14;2.33;;;1.50;;
18455;SDS011;9357;49.900;8.208;2023-03-14T00:41:47;3.17;;;1.30;;
18455;SDS011;9357;49.900;8.208;2023-03-14T00:43:24;2.90;;;1.33;;
18455;SDS011;9357;49.900;8.208;2023-03-14T00:44:56;7.60;;;1.63;;
18455;SDS011;9357;49.900;8.208;2023-03-14T00:46:29;4.70;;;1.60;;
18455;SDS011;9357;49.900;8.208;2023-03-14T00:48:03;4.23;;;1.50;;
18455;SDS011;9357;49.900;8.208;2023-03-14T00:49:36;5.10;;;1.90;;
18455;SDS011;9357;49.900;8.208;2023-03-14T00:51:09;4.10;;;1.57;;
18455;SDS011;9357;49.900;8.208;2023-03-14T00:52:44;3.80;;;1.70;;
18455;SDS011;9357;49.900;8.208;2023-03-14T00:54:19;4.73;;;1.70;;
18455;SDS011;9357;49.900;8.208;2023-03-14T00:55:52;4.63;;;1.53;;
18455;SDS011;9357;49.900;8.208;2023-03-14T00:57:25;6.40;;;1.47;;
18455;SDS011;9357;49.900;8.208;2023-03-14T00:58:58;5.40;;;1.43;;
18455;SDS011;9357;49.900;8.208;2023-03-14T01:00:30;5.30;;;1.50;;
18455;SDS011;9357;49.900;8.208;2023-03-14T01:02:03;3.53;;;1.37;;
18455;SDS011;9357;49.900;8.208;2023-03-14T01:03:37;5.07;;;1.87;;
18455;SDS011;9357;49.900;8.208;2023-03-14T01:05:09;6.57;;;1.60;;
18455;SDS011;9357;49.900;8.208;2023-03-14T01:06:42;3.03;;;1.40;;
18455;SDS011;9357;49.900;8.208;2023-03-14T01:08:15;7.20;;;1.63;;
18455;SDS011;9357;49.900;8.208;2023-03-14T01:09:50;5.37;;;1.50;;
18455;SDS011;9357;49.900;8.208;2023-03-14T01:11:24;5.03;;;1.37;;
18455;SDS011;9357;49.900;8.208;2023-03-14T01:12:58;5.97;;;1.50;;
18455;SDS011;9357;49.900;8.208;2023-03-14T01:14:31;6.15;;;1.40;;
18455;SDS011;9357;49.900;8.208;2023-03-14T01:16:03;4.43;;;1.53;;
18455;SDS011;9357;49.900;8.208;2023-03-14T01:17:39;2.73;;;1.93;;
18455;SDS011;9357;49.900;8.208;2023-03-14T01:19:12;6.72;;;1.70;;
18455;SDS011;9357;49.900;8.208;2023-03-14T01:20:44;5.23;;;1.60;;
18455;SDS011;9357;49.900;8.208;2023-03-14T01:22:17;7.17;;;1.70;;
18455;SDS011;9357;49.900;8.208;2023-03-14T01:23:52;3.60;;;1.30;;
18455;SDS011;9357;49.900;8.208;2023-03-14T01:25:26;4.82;;;1.30;;
18455;SDS011;9357;49.900;8.208;2023-03-14T01:26:59;3.33;;;1.60;;
18455;SDS011;9357;49.900;8.208;2023-03-14T01:28:32;3.77;;;1.60;;
18455;SDS011;9357;49.900;8.208;2023-03-14T01:30:04;5.77;;;1.53;;
18455;SDS011;9357;49.900;8.208;2023-03-14T01:31:39;3.67;;;1.40;;
18455;SDS011;9357;49.900;8.208;2023-03-14T01:33:10;4.10;;;1.70;;
18455;SDS011;9357;49.900;8.208;2023-03-14T01:34:45;5.40;;;1.53;;
18455;SDS011;9357;49.900;8.208;2023-03-14T01:36:18;5.18;;;1.50;;
18455;SDS011;9357;49.900;8.208;2023-03-14T01:37:51;4.70;;;1.20;;
18455;SDS011;9357;49.900;8.208;2023-03-14T01:39:24;5.17;;;1.67;;
18455;SDS011;9357;49.900;8.208;2023-03-14T01:40:57;5.00;;;1.67;;
18455;SDS011;9357;49.900;8.208;2023-03-14T01:42:29;4.57;;;1.50;;
18455;SDS011;9357;49.900;8.208;2023-03-14T01:44:01;5.47;;;1.70;;
18455;SDS011;9357;49.900;8.208;2023-03-14T01:47:40;7.23;;;1.70;;
18455;SDS011;9357;49.900;8.208;2023-03-14T01:49:14;5.03;;;1.63;;
18455;SDS011;9357;49.900;8.208;2023-03-14T01:50:54;7.23;;;1.70;;
18455;SDS011;9357;49.900;8.208;2023-03-14T01:52:27;6.60;;;1.40;;
18455;SDS011;9357;49.900;8.208;2023-03-14T01:54:06;5.13;;;1.53;;
18455;SDS011;9357;49.900;8.208;2023-03-14T01:55:43;5.13;;;1.60;;
18455;SDS011;9357;49.900;8.208;2023-03-14T01:57:17;4.93;;;1.60;;
18455;SDS011;9357;49.900;8.208;2023-03-14T01:58:52;7.73;;;1.87;;
18455;SDS011;9357;49.900;8.208;2023-03-14T02:00:25;4.53;;;1.70;;
18455;SDS011;9357;49.900;8.208;2023-03-14T02:01:58;4.03;;;1.80;;
18455;SDS011;9357;49.900;8.208;2023-03-14T02:03:33;7.30;;;1.70;;
18455;SDS011;9357;49.900;8.208;2023-03-14T02:05:10;6.00;;;1.60;;
18455;SDS011;9357;49.900;8.208;2023-03-14T02:06:46;4.10;;;1.43;;
18455;SDS011;9357;49.900;8.208;2023-03-14T02:08:22;4.40;;;1.40;;
18455;SDS011;9357;49.900;8.208;2023-03-14T02:09:56;5.43;;;1.70;;
18455;SDS011;9357;49.900;8.208;2023-03-14T02:11:31;5.73;;;1.63;;
18455;SDS011;9357;49.900;8.208;2023-03-14T02:13:04;5.70;;;1.67;;
18455;SDS011;9357;49.900;8.208;2023-03-14T02:14:37;4.60;;;1.40;;
18455;SDS011;9357;49.900;8.208;2023-03-14T02:16:11;6.22;;;1.50;;
18455;SDS011;9357;49.900;8.208;2023-03-14T02:17:44;3.80;;;1.17;;
18455;SDS011;9357;49.900;8.208;2023-03-14T02:19:19;2.67;;;1.27;;
18455;SDS011;9357;49.900;8.208;2023-03-14T02:20:57;4.43;;;1.60;;
18455;SDS011;9357;49.900;8.208;2023-03-14T02:22:39;3.87;;;1.40;;
18455;SDS011;9357;49.900;8.208;2023-03-14T02:24:15;3.90;;;1.50;;
18455;SDS011;9357;49.900;8.208;2023-03-14T02:25:51;6.00;;;1.43;;
18455;SDS011;9357;49.900;8.208;2023-03-14T02:27:29;5.65;;;1.77;;
18455;SDS011;9357;49.900;8.208;2023-03-14T02:29:02;4.57;;;2.00;;
18455;SDS011;9357;49.900;8.208;2023-03-14T02:30:35;4.13;;;1.60;;
18455;SDS011;9357;49.900;8.208;2023-03-14T02:32:08;7.93;;;1.98;;
18455;SDS011;9357;49.900;8.208;2023-03-14T02:33:41;3.78;;;1.73;;
18455;SDS011;9357;49.900;8.208;2023-03-14T02:35:15;6.47;;;2.07;;
18455;SDS011;9357;49.900;8.208;2023-03-14T02:36:50;3.90;;;1.53;;
18455;SDS011;9357;49.900;8.208;2023-03-14T02:38:24;5.33;;;1.77;;
18455;SDS011;9357;49.900;8.208;2023-03-14T02:40:03;6.13;;;1.75;;
18455;SDS011;9357;49.900;8.208;2023-03-14T02:41:37;5.88;;;1.60;;
18455;SDS011;9357;49.900;8.208;2023-03-14T02:43:12;5.90;;;1.67;;
18455;SDS011;9357;49.900;8.208;2023-03-14T02:44:52;6.28;;;1.60;;
18455;SDS011;9357;49.900;8.208;2023-03-14T02:46:26;3.77;;;1.50;;
18455;SDS011;9357;49.900;8.208;2023-03-14T02:47:59;4.37;;;1.60;;
18455;SDS011;9357;49.900;8.208;2023-03-14T02:49:36;5.65;;;1.60;;
18455;SDS011;9357;49.900;8.208;2023-03-14T02:51:08;4.77;;;1.40;;
18455;SDS011;9357;49.900;8.208;2023-03-14T02:52:42;6.13;;;1.50;;
18455;SDS011;9357;49.900;8.208;2023-03-14T02:54:14;3.70;;;1.48;;
18455;SDS011;9357;49.900;8.208;2023-03-14T02:55:48;4.47;;;1.70;;
18455;SDS011;9357;49.900;8.208;2023-03-14T02:57:21;6.87;;;1.50;;
18455;SDS011;9357;49.900;8.208;2023-03-14T02:58:55;5.53;;;1.47;;
18455;SDS011;9357;49.900;8.208;2023-03-14T03:00:28;4.37;;;1.50;;
18455;SDS011;9357;49.900;8.208;2023-03-14T03:02:01;2.93;;;1.73;;
18455;SDS011;9357;49.900;8.208;2023-03-14T03:03:34;10.63;;;1.50;;
18455;SDS011;9357;49.900;8.208;2023-03-14T03:05:06;6.13;;;1.57;;
18455;SDS011;9357;49.900;8.208;2023-03-14T03:06:39;4.70;;;1.50;;
18455;SDS011;9357;49.900;8.208;2023-03-14T03:08:13;4.53;;;1.60;;
18455;SDS011;9357;49.900;8.208;2023-03-14T03:09:46;6.63;;;1.57;;
18455;SDS011;9357;49.900;8.208;2023-03-14T03:11:18;7.37;;;1.70;;
18455;SDS011;9357;49.900;8.208;2023-03-14T03:12:51;4.10;;;1.40;;
18455;SDS011;9357;49.900;8.208;2023-03-14T03:14:26;5.50;;;1.90;;
18455;SDS011;9357;49.900;8.208;2023-03-14T03:15:58;4.57;;;1.50;;
18455;SDS011;9357;49.900;8.208;2023-03-14T03:17:31;4.38;;;1.63;;
18455;SDS011;9357;49.900;8.208;2023-03-14T03:19:04;4.80;;;1.60;;
18455;SDS011;9357;49.900;8.208;2023-03-14T03:20:37;4.50;;;1.40;;
18455;SDS011;9357;49.900;8.208;2023-03-14T03:22:09;4.15;;;1.40;;
18455;SDS011;9357;49.900;8.208;2023-03-14T03:23:42;3.50;;;1.93;;
18455;SDS011;9357;49.900;8.208;2023-03-14T03:25:15;2.57;;;1.40;;
18455;SDS011;9357;49.900;8.208;2023-03-14T03:26:48;2.97;;;1.30;;
18455;SDS011;9357;49.900;8.208;2023-03-14T03:28:21;2.63;;;1.47;;
18455;SDS011;9357;49.900;8.208;2023-03-14T03:29:55;6.03;;;1.60;;
18455;SDS011;9357;49.900;8.208;2023-03-14T03:31:28;6.63;;;1.87;;
18455;SDS011;9357;49.900;8.208;2023-03-14T03:33:00;3.37;;;1.20;;
18455;SDS011;9357;49.900;8.208;2023-03-14T03:34:33;4.32;;;1.40;;
18455;SDS011;9357;49.900;8.208;2023-03-14T03:36:06;6.27;;;1.50;;
18455;SDS011;9357;49.900;8.208;2023-03-14T03:37:40;3.00;;;1.23;;
18455;SDS011;9357;49.900;8.208;2023-03-14T03:39:13;5.87;;;1.50;;
18455;SDS011;9357;49.900;8.208;2023-03-14T03:40:45;3.43;;;1.30;;
18455;SDS011;9357;49.900;8.208;2023-03-14T03:42:18;3.07;;;1.30;;
18455;SDS011;9357;49.900;8.208;2023-03-14T03:43:50;5.17;;;1.67;;
18455;SDS011;9357;49.900;8.208;2023-03-14T03:45:24;4.53;;;1.57;;
18455;SDS011;9357;49.900;8.208;2023-03-14T03:46:57;4.50;;;1.45;;
18455;SDS011;9357;49.900;8.208;2023-03-14T03:48:30;3.97;;;1.67;;
18455;SDS011;9357;49.900;8.208;2023-03-14T03:50:03;4.15;;;1.35;;
18455;SDS011;9357;49.900;8.208;2023-03-14T03:51:36;5.13;;;1.40;;
18455;SDS011;9357;49.900;8.208;2023-03-14T03:53:08;3.10;;;1.20;;
18455;SDS011;9357;49.900;8.208;2023-03-14T03:54:43;4.63;;;1.60;;
18455;SDS011;9357;49.900;8.208;2023-03-14T03:56:16;2.45;;;1.42;;
18455;SDS011;9357;49.900;8.208;2023-03-14T03:57:49;3.53;;;1.57;;
18455;SDS011;9357;49.900;8.208;2023-03-14T03:59:21;5.33;;;1.43;;
18455;SDS011;9357;49.900;8.208;2023-03-14T04:00:56;3.37;;;1.13;;
18455;SDS011;9357;49.900;8.208;2023-03-14T04:02:27;5.23;;;1.57;;
18455;SDS011;9357;49.900;8.208;2023-03-14T04:04:00;4.73;;;1.43;;
18455;SDS011;9357;49.900;8.208;2023-03-14T04:05:33;6.10;;;1.00;;
18455;SDS011;9357;49.900;8.208;2023-03-14T04:07:06;5.13;;;1.30;;
18455;SDS011;9357;49.900;8.208;2023-03-14T04:08:38;4.13;;;1.10;;
18455;SDS011;9357;49.900;8.208;2023-03-14T04:10:12;4.17;;;1.10;;
18455;SDS011;9357;49.900;8.208;2023-03-14T04:11:45;3.13;;;1.40;;
18455;SDS011;9357;49.900;8.208;2023-03-14T04:13:17;3.50;;;1.30;;
18455;SDS011;9357;49.900;8.208;2023-03-14T04:14:50;4.40;;;1.93;;
18455;SDS011;9357;49.900;8.208;2023-03-14T04:16:24;3.70;;;1.30;;
18455;SDS011;9357;49.900;8.208;2023-03-14T04:17:58;5.70;;;1.50;;
18455;SDS011;9357;49.900;8.208;2023-03-14T04:19:31;2.87;;;1.03;;
18455;SDS011;9357;49.900;8.208;2023-03-14T04:21:03;4.20;;;1.30;;
18455;SDS011;9357;49.900;8.208;2023-03-14T04:22:36;3.87;;;1.57;;
18455;SDS011;9357;49.900;8.208;2023-03-14T04:24:09;3.37;;;1.37;;
18455;SDS011;9357;49.900;8.208;2023-03-14T04:25:42;4.37;;;1.33;;
18455;SDS011;9357;49.900;8.208;2023-03-14T04:27:15;4.73;;;1.40;;
18455;SDS011;9357;49.900;8.208;2023-03-14T04:28:47;3.63;;;1.23;;
18455;SDS011;9357;49.900;8.208;2023-03-14T04:30:20;3.73;;;1.40;;
18455;SDS011;9357;49.900;8.208;2023-03-14T04:31:54;4.03;;;1.48;;
18455;SDS011;9357;49.900;8.208;2023-03-14T04:33:27;3.65;;;1.02;;
18455;SDS011;9357;49.900;8.208;2023-03-14T04:35:00;3.45;;;1.30;;
18455;SDS011;9357;49.900;8.208;2023-03-14T04:36:32;3.40;;;1.10;;
18455;SDS011;9357;49.900;8.208;2023-03-14T04:38:08;3.88;;;1.17;;
18455;SDS011;9357;49.900;8.208;2023-03-14T04:39:40;5.07;;;1.33;;
18455;SDS011;9357;49.900;8.208;2023-03-14T04:41:13;4.00;;;1.17;;
18455;SDS011;9357;49.900;8.208;2023-03-14T04:42:46;4.30;;;1.20;;
18455;SDS011;9357;49.900;8.208;2023-03-14T04:44:19;5.80;;;1.63;;
18455;SDS011;9357;49.900;8.208;2023-03-14T04:45:52;4.40;;;1.10;;
18455;SDS011;9357;49.900;8.208;2023-03-14T04:47:27;5.70;;;1.33;;
18455;SDS011;9357;49.900;8.208;2023-03-14T04:49:00;2.13;;;1.07;;
18455;SDS011;9357;49.900;8.208;2023-03-14T04:50:33;2.28;;;1.20;;
18455;SDS011;9357;49.900;8.208;2023-03-14T04:52:05;2.60;;;1.25;;
18455;SDS011;9357;49.900;8.208;2023-03-14T04:53:38;2.97;;;1.40;;
18455;SDS011;9357;49.900;8.208;2023-03-14T04:55:11;2.85;;;0.95;;
18455;SDS011;9357;49.900;8.208;2023-03-14T04:56:43;2.17;;;1.27;;
18455;SDS011;9357;49.900;8.208;2023-03-14T04:58:16;3.92;;;1.05;;
18455;SDS011;9357;49.900;8.208;2023-03-14T04:59:49;1.87;;;0.90;;
18455;SDS011;9357;49.900;8.208;2023-03-14T05:01:22;1.87;;;1.00;;
18455;SDS011;9357;49.900;8.208;2023-03-14T05:02:56;2.58;;;1.10;;
18455;SDS011;9357;49.900;8.208;2023-03-14T05:04:28;3.33;;;0.85;;
18455;SDS011;9357;49.900;8.208;2023-03-14T05:06:04;4.85;;;1.48;;
18455;SDS011;9357;49.900;8.208;2023-03-14T05:07:37;2.78;;;1.05;;
18455;SDS011;9357;49.900;8.208;2023-03-14T05:09:09;4.80;;;1.10;;
18455;SDS011;9357;49.900;8.208;2023-03-14T05:10:42;3.63;;;0.98;;
18455;SDS011;9357;49.900;8.208;2023-03-14T05:12:15;7.40;;;1.50;;
18455;SDS011;9357;49.900;8.208;2023-03-14T05:13:48;3.38;;;1.10;;
18455;SDS011;9357;49.900;8.208;2023-03-14T05:15:20;2.10;;;1.17;;
18455;SDS011;9357;49.900;8.208;2023-03-14T05:16:53;2.70;;;1.20;;
18455;SDS011;9357;49.900;8.208;2023-03-14T05:18:27;4.45;;;1.13;;
18455;SDS011;9357;49.900;8.208;2023-03-14T05:20:00;5.50;;;1.27;;
18455;SDS011;9357;49.900;8.208;2023-03-14T05:21:35;4.20;;;1.30;;
18455;SDS011;9357;49.900;8.208;2023-03-14T05:23:08;4.55;;;1.17;;
18455;SDS011;9357;49.900;8.208;2023-03-14T05:24:41;3.40;;;1.10;;
18455;SDS011;9357;49.900;8.208;2023-03-14T05:26:13;1.92;;;1.10;;
18455;SDS011;9357;49.900;8.208;2023-03-14T05:27:47;2.47;;;0.90;;
18455;SDS011;9357;49.900;8.208;2023-03-14T05:29:19;2.72;;;1.02;;
18455;SDS011;9357;49.900;8.208;2023-03-14T05:30:52;4.00;;;1.20;;
18455;SDS011;9357;49.900;8.208;2023-03-14T05:32:24;4.03;;;1.13;;
18455;SDS011;9357;49.900;8.208;2023-03-14T05:33:58;5.30;;;1.38;;
18455;SDS011;9357;49.900;8.208;2023-03-14T05:35:31;1.77;;;0.98;;
18455;SDS011;9357;49.900;8.208;2023-03-14T05:37:04;4.00;;;1.10;;
18455;SDS011;9357;49.900;8.208;2023-03-14T05:38:36;3.17;;;1.20;;
18455;SDS011;9357;49.900;8.208;2023-03-14T05:40:09;4.57;;;1.30;;
18455;SDS011;9357;49.900;8.208;2023-03-14T05:41:41;3.70;;;1.30;;
18455;SDS011;9357;49.900;8.208;2023-03-14T05:43:14;1.95;;;0.90;;
18455;SDS011;9357;49.900;8.208;2023-03-14T05:44:47;4.10;;;1.25;;
18455;SDS011;9357;49.900;8.208;2023-03-14T05:46:20;1.70;;;1.20;;
18455;SDS011;9357;49.900;8.208;2023-03-14T05:47:52;2.63;;;1.08;;
18455;SDS011;9357;49.900;8.208;2023-03-14T05:49:26;2.05;;;1.00;;
18455;SDS011;9357;49.900;8.208;2023-03-14T05:50:59;5.40;;;1.20;;
18455;SDS011;9357;49.900;8.208;2023-03-14T05:52:32;3.13;;;1.02;;
18455;SDS011;9357;49.900;8.208;2023-03-14T05:54:04;2.13;;;1.00;;
18455;SDS011;9357;49.900;8.208;2023-03-14T05:55:36;1.77;;;1.00;;
18455;SDS011;9357;49.900;8.208;2023-03-14T05:57:09;3.57;;;1.07;;
18455;SDS011;9357;49.900;8.208;2023-03-14T05:58:42;3.33;;;1.25;;
18455;SDS011;9357;49.900;8.208;2023-03-14T06:00:15;3.83;;;1.20;;
18455;SDS011;9357;49.900;8.208;2023-03-14T06:01:48;2.00;;;0.88;;
18455;SDS011;9357;49.900;8.208;2023-03-14T06:03:21;3.67;;;1.00;;
18455;SDS011;9357;49.900;8.208;2023-03-14T06:04:55;3.10;;;1.33;;
18455;SDS011;9357;49.900;8.208;2023-03-14T06:06:28;4.97;;;1.25;;
18455;SDS011;9357;49.900;8.208;2023-03-14T06:08:01;2.72;;;1.20;;
18455;SDS011;9357;49.900;8.208;2023-03-14T06:09:32;2.97;;;1.30;;
18455;SDS011;9357;49.900;8.208;2023-03-14T06:11:05;3.95;;;1.10;;
18455;SDS011;9357;49.900;8.208;2023-03-14T06:12:38;2.03;;;1.00;;
18455;SDS011;9357;49.900;8.208;2023-03-14T06:14:11;3.10;;;1.13;;
18455;SDS011;9357;49.900;8.208;2023-03-14T06:15:44;2.50;;;0.85;;
18455;SDS011;9357;49.900;8.208;2023-03-14T06:17:17;2.63;;;1.10;;
18455;SDS011;9357;49.900;8.208;2023-03-14T06:18:50;2.42;;;1.05;;
18455;SDS011;9357;49.900;8.208;2023-03-14T06:20:24;3.10;;;1.33;;
18455;SDS011;9357;49.900;8.208;2023-03-14T06:21:56;2.92;;;1.00;;
18455;SDS011;9357;49.900;8.208;2023-03-14T06:23:29;4.35;;;1.40;;
18455;SDS011;9357;49.900;8.208;2023-03-14T06:25:03;4.05;;;1.15;;
18455;SDS011;9357;49.900;8.208;2023-03-14T06:26:36;2.58;;;1.13;;
18455;SDS011;9357;49.900;8.208;2023-03-14T06:28:09;3.17;;;1.05;;
18455;SDS011;9357;49.900;8.208;2023-03-14T06:29:41;3.83;;;1.25;;
18455;SDS011;9357;49.900;8.208;2023-03-14T06:31:14;2.70;;;1.30;;
18455;SDS011;9357;49.900;8.208;2023-03-14T06:32:47;3.42;;;1.10;;
18455;SDS011;9357;49.900;8.208;2023-03-14T06:34:20;1.27;;;0.90;;
18455;SDS011;9357;49.900;8.208;2023-03-14T06:35:53;2.45;;;1.25;;
18455;SDS011;9357;49.900;8.208;2023-03-14T06:37:26;3.60;;;1.00;;
18455;SDS011;9357;49.900;8.208;2023-03-14T06:38:59;4.35;;;1.27;;
18455;SDS011;9357;49.900;8.208;2023-03-14T06:40:31;2.00;;;0.85;;
18455;SDS011;9357;49.900;8.208;2023-03-14T06:42:04;2.53;;;0.90;;
18455;SDS011;9357;49.900;8.208;2023-03-14T06:43:37;2.70;;;1.20;;
18455;SDS011;9357;49.900;8.208;2023-03-14T06:45:10;1.40;;;0.80;;
18455;SDS011;9357;49.900;8.208;2023-03-14T06:46:43;1.90;;;0.95;;
18455;SDS011;9357;49.900;8.208;2023-03-14T06:48:15;3.95;;;1.42;;
18455;SDS011;9357;49.900;8.208;2023-03-14T06:49:50;3.40;;;1.10;;
18455;SDS011;9357;49.900;8.208;2023-03-14T06:51:24;2.40;;;1.05;;
18455;SDS011;9357;49.900;8.208;2023-03-14T06:52:56;2.53;;;1.00;;
18455;SDS011;9357;49.900;8.208;2023-03-14T06:54:29;2.95;;;1.10;;
18455;SDS011;9357;49.900;8.208;2023-03-14T06:56:02;4.90;;;1.10;;
18455;SDS011;9357;49.900;8.208;2023-03-14T06:57:35;2.50;;;0.95;;
18455;SDS011;9357;49.900;8.208;2023-03-14T06:59:08;1.35;;;0.95;;
18455;SDS011;9357;49.900;8.208;2023-03-14T07:00:41;2.03;;;1.10;;
18455;SDS011;9357;49.900;8.208;2023-03-14T07:02:14;3.10;;;0.90;;
18455;SDS011;9357;49.900;8.208;2023-03-14T07:03:46;3.28;;;1.20;;
18455;SDS011;9357;49.900;8.208;2023-03-14T07:05:18;4.00;;;1.20;;
18455;SDS011;9357;49.900;8.208;2023-03-14T07:06:52;1.40;;;1.08;;
18455;SDS011;9357;49.900;8.208;2023-03-14T07:08:25;1.65;;;1.00;;
18455;SDS011;9357;49.900;8.208;2023-03-14T07:09:58;4.43;;;1.30;;
18455;SDS011;9357;49.900;8.208;2023-03-14T07:11:30;3.23;;;1.00;;
18455;SDS011;9357;49.900;8.208;2023-03-14T07:13:03;3.25;;;1.00;;
18455;SDS011;9357;49.900;8.208;2023-03-14T07:14:36;2.87;;;1.20;;
18455;SDS011;9357;49.900;8.208;2023-03-14T07:16:09;2.13;;;1.00;;
18455;SDS011;9357;49.900;8.208;2023-03-14T07:17:41;3.92;;;1.27;;
18455;SDS011;9357;49.900;8.208;2023-03-14T07:19:14;2.97;;;1.10;;
18455;SDS011;9357;49.900;8.208;2023-03-14T07:20:47;1.60;;;1.20;;
18455;SDS011;9357;49.900;8.208;2023-03-14T07:22:23;3.43;;;1.50;;
18455;SDS011;9357;49.900;8.208;2023-03-14T07:23:55;3.37;;;1.10;;
18455;SDS011;9357;49.900;8.208;2023-03-14T07:25:28;5.87;;;1.33;;
18455;SDS011;9357;49.900;8.208;2023-03-14T07:27:01;1.50;;;1.03;;
18455;SDS011;9357;49.900;8.208;2023-03-14T07:28:34;4.67;;;1.33;;
18455;SDS011;9357;49.900;8.208;2023-03-14T07:30:07;1.63;;;1.00;;
18455;SDS011;9357;49.900;8.208;2023-03-14T07:31:40;2.47;;;1.27;;
18455;SDS011;9357;49.900;8.208;2023-03-14T07:33:13;2.22;;;1.20;;
18455;SDS011;9357;49.900;8.208;2023-03-14T07:34:46;2.40;;;1.00;;
18455;SDS011;9357;49.900;8.208;2023-03-14T07:36:19;2.53;;;1.10;;
18455;SDS011;9357;49.900;8.208;2023-03-14T07:37:53;1.95;;;1.00;;
18455;SDS011;9357;49.900;8.208;2023-03-14T07:39:26;3.77;;;1.30;;
18455;SDS011;9357;49.900;8.208;2023-03-14T07:40:58;3.63;;;1.20;;
18455;SDS011;9357;49.900;8.208;2023-03-14T07:42:32;3.73;;;1.10;;
18455;SDS011;9357;49.900;8.208;2023-03-14T07:44:04;3.60;;;1.10;;
18455;SDS011;9357;49.900;8.208;2023-03-14T07:45:37;2.53;;;1.23;;
18455;SDS011;9357;49.900;8.208;2023-03-14T07:47:13;1.43;;;1.10;;
18455;SDS011;9357;49.900;8.208;2023-03-14T07:48:46;2.80;;;1.10;;
18455;SDS011;9357;49.900;8.208;2023-03-14T07:50:19;3.07;;;1.07;;
18455;SDS011;9357;49.900;8.208;2023-03-14T07:51:51;4.27;;;1.40;;
18455;SDS011;9357;49.900;8.208;2023-03-14T07:53:25;3.63;;;1.20;;
18455;SDS011;9357;49.900;8.208;2023-03-14T07:54:58;4.13;;;1.40;;
18455;SDS011;9357;49.900;8.208;2023-03-14T07:56:31;2.40;;;1.10;;
18455;SDS011;9357;49.900;8.208;2023-03-14T07:58:04;2.70;;;1.30;;
18455;SDS011;9357;49.900;8.208;2023-03-14T07:59:37;1.73;;;1.00;;
18455;SDS011;9357;49.900;8.208;2023-03-14T08:01:10;2.13;;;1.20;;
18455;SDS011;9357;49.900;8.208;2023-03-14T08:02:42;3.20;;;1.40;;
18455;SDS011;9357;49.900;8.208;2023-03-14T08:04:15;2.90;;;1.50;;
18455;SDS011;9357;49.900;8.208;2023-03-14T08:05:48;3.30;;;1.50;;
18455;SDS011;9357;49.900;8.208;2023-03-14T08:07:22;4.07;;;1.63;;
18455;SDS011;9357;49.900;8.208;2023-03-14T08:08:56;3.43;;;1.47;;
18455;SDS011;9357;49.900;8.208;2023-03-14T08:10:29;3.33;;;1.33;;
18455;SDS011;9357;49.900;8.208;2023-03-14T08:12:02;2.37;;;1.43;;
18455;SDS011;9357;49.900;8.208;2023-03-14T08:13:35;2.97;;;1.50;;
18455;SDS011;9357;49.900;8.208;2023-03-14T08:15:08;3.47;;;1.37;;
18455;SDS011;9357;49.900;8.208;2023-03-14T08:16:41;2.20;;;1.50;;
18455;SDS011;9357;49.900;8.208;2023-03-14T08:18:14;3.73;;;1.70;;
18455;SDS011;9357;49.900;8.208;2023-03-14T08:19:47;2.13;;;1.40;;
18455;SDS011;9357;49.900;8.208;2023-03-14T08:21:19;2.30;;;1.60;;
18455;SDS011;9357;49.900;8.208;2023-03-14T08:22:54;2.43;;;1.60;;
18455;SDS011;9357;49.900;8.208;2023-03-14T08:24:29;2.93;;;1.40;;
18455;SDS011;9357;49.900;8.208;2023-03-14T08:26:02;2.33;;;1.20;;
18455;SDS011;9357;49.900;8.208;2023-03-14T08:27:35;4.20;;;1.40;;
18455;SDS011;9357;49.900;8.208;2023-03-14T08:29:09;1.53;;;1.40;;
18455;SDS011;9357;49.900;8.208;2023-03-14T08:30:44;2.87;;;1.40;;
18455;SDS011;9357;49.900;8.208;2023-03-14T08:32:18;1.90;;;1.30;;
18455;SDS011;9357;49.900;8.208;2023-03-14T08:33:51;3.33;;;1.40;;
18455;SDS011;9357;49.900;8.208;2023-03-14T08:35:24;1.90;;;1.30;;
18455;SDS011;9357;49.900;8.208;2023-03-14T08:36:57;2.17;;;1.17;;
18455;SDS011;9357;49.900;8.208;2023-03-14T08:38:30;2.50;;;1.20;;
18455;SDS011;9357;49.900;8.208;2023-03-14T08:40:05;1.93;;;1.20;;
18455;SDS011;9357;49.900;8.208;2023-03-14T08:41:40;1.73;;;1.40;;
18455;SDS011;9357;49.900;8.208;2023-03-14T08:43:13;1.20;;;1.10;;
18455;SDS011;9357;49.900;8.208;2023-03-14T08:44:46;2.50;;;1.37;;
18455;SDS011;9357;49.900;8.208;2023-03-14T08:46:19;2.10;;;1.20;;
18455;SDS011;9357;49.900;8.208;2023-03-14T08:47:52;1.87;;;1.30;;
18455;SDS011;9357;49.900;8.208;2023-03-14T08:49:24;2.50;;;1.30;;
18455;SDS011;9357;49.900;8.208;2023-03-14T08:51:03;1.53;;;1.20;;
18455;SDS011;9357;49.900;8.208;2023-03-14T08:52:37;1.37;;;1.27;;
18455;SDS011;9357;49.900;8.208;2023-03-14T14:56:27;1.80;;;1.13;;
18455;SDS011;9357;49.900;8.208;2023-03-14T14:58:09;1.42;;;1.10;;
18455;SDS011;9357;49.900;8.208;2023-03-14T14:59:47;2.88;;;1.10;;
18455;SDS011;9357;49.900;8.208;2023-03-14T15:01:23;2.15;;;1.17;;
18455;SDS011;9357;49.900;8.208;2023-03-14T15:03:01;3.40;;;1.10;;
18455;SDS011;9357;49.900;8.208;2023-03-14T15:04:34;1.45;;;0.90;;
18455;SDS011;9357;49.900;8.208;2023-03-14T15:06:08;0.90;;;0.90;;
18455;SDS011;9357;49.900;8.208;2023-03-14T15:07:43;1.70;;;0.85;;
18455;SDS011;9357;49.900;8.208;2023-03-14T15:09:16;1.40;;;1.27;;
18455;SDS011;9357;49.900;8.208;2023-03-14T15:10:49;1.95;;;1.08;;
18455;SDS011;9357;49.900;8.208;2023-03-14T15:12:23;0.90;;;0.85;;
18455;SDS011;9357;49.900;8.208;2023-03-14T15:13:56;3.08;;;1.00;;
18455;SDS011;9357;49.900;8.208;2023-03-14T15:15:28;1.25;;;0.98;;
18455;SDS011;9357;49.900;8.208;2023-03-14T15:17:02;2.10;;;1.00;;
18455;SDS011;9357;49.900;8.208;2023-03-14T15:18:34;1.65;;;0.90;;
18455;SDS011;9357;49.900;8.208;2023-03-14T15:20:10;1.35;;;1.00;;
18455;SDS011;9357;49.900;8.208;2023-03-14T15:21:44;1.38;;;0.70;;
18455;SDS011;9357;49.900;8.208;2023-03-14T15:23:17;0.80;;;0.80;;
18455;SDS011;9357;49.900;8.208;2023-03-14T15:24:51;0.90;;;0.90;;
18455;SDS011;9357;49.900;8.208;2023-03-14T15:26:24;0.95;;;0.95;;
18455;SDS011;9357;49.900;8.208;2023-03-14T15:28:01;0.95;;;0.90;;
18455;SDS011;9357;49.900;8.208;2023-03-14T15:29:34;2.85;;;1.25;;
18455;SDS011;9357;49.900;8.208;2023-03-14T15:31:08;1.85;;;0.88;;
18455;SDS011;9357;49.900;8.208;2023-03-14T15:32:42;2.45;;;0.90;;
18455;SDS011;9357;49.900;8.208;2023-03-14T15:34:15;1.65;;;0.88;;
18455;SDS011;9357;49.900;8.208;2023-03-14T15:35:48;4.32;;;0.88;;